Time;durP1;ratioP1;P1;durP2;ratioP2;P2;SDS_P1;SDS_P2;PMS_P1;PMS_P2;Temp;Humidity;BMP_temperature;BMP_pressure;BME280_temperature;BME280_humidity;BME280_pressure;Samples;Min_cycle;Max_cycle;Signal;HPM_P1;HPM_P2
2024/03/02 00:00:54;;;;;;;5.32;2.05;;;;;;;;;;5053454;28;20053;-75
2024/03/02 00:03:20;;;;;;;6.20;2.10;;;;;;;;;;5053815;28;20480;-75
2024/03/02 00:05:52;;;;;;;4.07;1.48;;;;;;;;;;5053715;28;20070;-76
2024/03/02 00:08:23;;;;;;;6.18;1.77;;;;;;;;;;5055178;28;20025;-75
2024/03/02 00:10:50;;;;;;;4.20;1.48;;;;;;;;;;5053821;28;20060;-73
2024/03/02 00:13:16;;;;;;;2.60;1.10;;;;;;;;;;5054390;28;20465;-74
2024/03/02 00:15:45;;;;;;;2.75;1.38;;;;;;;;;;5055630;28;20032;-74
2024/03/02 00:18:21;;;;;;;2.47;1.25;;;;;;;;;;5055152;28;20108;-74
2024/03/02 00:20:47;;;;;;;4.43;1.38;;;;;;;;;;5054511;28;20066;-74
2024/03/02 00:23:18;;;;;;;4.97;2.10;;;;;;;;;;5053412;28;20484;-74
2024/03/02 00:25:44;;;;;;;;;;;;;;;;;;5053772;28;20437;-74
2024/03/02 00:28:16;;;;;;;3.20;1.65;;;;;;;;;;5053329;28;19999;-74
2024/03/02 00:30:48;;;;;;;5.05;1.58;;;;;;;;;;5054257;28;20029;-74
2024/03/02 00:33:14;;;;;;;4.72;1.50;;;;;;;;;;5053290;28;20415;-74
2024/03/02 00:35:40;;;;;;;5.55;1.58;;;;;;;;;;5053385;28;20021;-73
2024/03/02 00:38:07;;;;;;;5.70;1.63;;;;;;;;;;5053654;28;20025;-73
2024/03/02 00:40:33;;;;;;;3.33;1.20;;;;;;;;;;5053606;28;20029;-74
2024/03/02 00:42:59;;;;;;;3.78;1.35;;;;;;;;;;5055146;28;20025;-74
2024/03/02 00:45:26;;;;;;;9.15;2.67;;;;;;;;;;5053206;28;20021;-74
2024/03/02 00:47:52;;;;;;;4.32;1.58;;;;;;;;;;5052980;28;20052;-74
2024/03/02 00:50:19;;;;;;;3.80;1.42;;;;;;;;;;5054387;28;20060;-74
2024/03/02 00:52:45;;;;;;;4.50;1.73;;;;;;;;;;5054021;28;20547;-74
2024/03/02 00:55:11;;;;;;;5.90;1.73;;;;;;;;;;5054849;28;20025;-74
2024/03/02 00:57:37;;;;;;;4.25;1.50;;;;;;;;;;5053029;28;20025;-74
2024/03/02 01:00:08;;;;;;;5.32;1.70;;;;;;;;;;5052765;28;20029;-74
2024/03/02 01:02:34;;;;;;;6.20;1.73;;;;;;;;;;5053017;28;20036;-73
2024/03/02 01:05:00;;;;;;;2.85;1.20;;;;;;;;;;5052268;28;20029;-74
2024/03/02 01:07:26;;;;;;;3.25;1.33;;;;;;;;;;5052775;28;20425;-74
2024/03/02 01:09:52;;;;;;;5.05;1.35;;;;;;;;;;5052449;28;20028;-74
2024/03/02 01:12:18;;;;;;;7.75;1.58;;;;;;;;;;5052760;28;20017;-75
2024/03/02 01:14:45;;;;;;;5.15;1.50;;;;;;;;;;5052553;28;20017;-75
2024/03/02 01:17:11;;;;;;;4.70;1.55;;;;;;;;;;5053910;28;20102;-75
2024/03/02 01:19:37;;;;;;;3.80;1.38;;;;;;;;;;5052506;28;20059;-74
2024/03/02 01:22:03;;;;;;;5.05;1.60;;;;;;;;;;5052171;28;20493;-73
2024/03/02 01:24:29;;;;;;;4.13;1.48;;;;;;;;;;5053886;28;20370;-74
2024/03/02 01:26:55;;;;;;;5.72;1.23;;;;;;;;;;5052144;28;20028;-74
2024/03/02 01:29:21;;;;;;;3.80;1.17;;;;;;;;;;5053517;28;20021;-74
2024/03/02 01:31:47;;;;;;;2.45;1.02;;;;;;;;;;5051939;28;20040;-74
2024/03/02 01:34:14;;;;;;;4.82;1.17;;;;;;;;;;5053399;28;20025;-75
2024/03/02 01:36:40;;;;;;;4.25;1.67;;;;;;;;;;5052016;28;20087;-73
2024/03/02 01:39:09;;;;;;;2.33;1.00;;;;;;;;;;5052913;28;20083;-75
2024/03/02 01:41:35;;;;;;;3.45;1.15;;;;;;;;;;5053566;28;20025;-74
2024/03/02 01:44:01;;;;;;;3.78;1.10;;;;;;;;;;5053434;28;20021;-75
2024/03/02 01:46:27;;;;;;;2.05;0.77;;;;;;;;;;5052162;28;20024;-75
2024/03/02 01:48:53;;;;;;;3.70;0.82;;;;;;;;;;5051692;28;20029;-75
2024/03/02 01:51:19;;;;;;;0.93;0.52;;;;;;;;;;5051747;28;20029;-74
2024/03/02 01:53:45;;;;;;;1.77;0.60;;;;;;;;;;5052781;28;20358;-74
2024/03/02 01:56:11;;;;;;;1.60;0.80;;;;;;;;;;5051539;28;20055;-74
2024/03/02 01:58:38;;;;;;;2.65;0.73;;;;;;;;;;5053242;28;20053;-75
2024/03/02 02:01:04;;;;;;;0.93;0.60;;;;;;;;;;5052993;28;20021;-75
2024/03/02 02:03:30;;;;;;;1.98;0.70;;;;;;;;;;5051875;28;20029;-76
2024/03/02 02:05:56;;;;;;;1.30;0.55;;;;;;;;;;5051242;28;20036;-75
2024/03/02 02:08:22;;;;;;;2.67;0.68;;;;;;;;;;5052611;28;20452;-74
2024/03/02 02:10:49;;;;;;;1.40;0.60;;;;;;;;;;5051672;28;20025;-75
2024/03/02 02:13:15;;;;;;;2.75;0.93;;;;;;;;;;5052915;28;20017;-75
2024/03/02 02:15:41;;;;;;;0.73;0.50;;;;;;;;;;5052105;28;20028;-76
2024/03/02 02:18:07;;;;;;;1.70;0.60;;;;;;;;;;5050684;28;20118;-75
2024/03/02 02:20:33;;;;;;;2.72;0.50;;;;;;;;;;5051178;28;20086;-76
2024/03/02 02:23:00;;;;;;;1.02;0.50;;;;;;;;;;5050948;28;20441;-76
2024/03/02 02:25:26;;;;;;;0.80;0.40;;;;;;;;;;5051268;28;20031;-75
2024/03/02 02:27:52;;;;;;;1.67;0.73;;;;;;;;;;5051075;28;20016;-75
2024/03/02 02:30:23;;;;;;;2.78;0.50;;;;;;;;;;5051166;28;20025;-75
2024/03/02 02:32:49;;;;;;;3.00;0.90;;;;;;;;;;5051094;28;20472;-75
2024/03/02 02:35:15;;;;;;;2.53;0.77;;;;;;;;;;5052285;28;20055;-75
2024/03/02 02:37:41;;;;;;;0.90;0.50;;;;;;;;;;5052113;28;20472;-75
2024/03/02 02:40:08;;;;;;;0.65;0.43;;;;;;;;;;5051319;28;20128;-74
2024/03/02 02:42:34;;;;;;;1.27;0.45;;;;;;;;;;5054282;28;20358;-74
2024/03/02 02:45:00;;;;;;;1.00;0.43;;;;;;;;;;5052375;28;20492;-74
2024/03/02 02:47:29;;;;;;;3.30;0.60;;;;;;;;;;5051988;28;20477;-75
2024/03/02 02:49:55;;;;;;;1.63;0.55;;;;;;;;;;5050674;28;20028;-75
2024/03/02 02:52:21;;;;;;;0.82;0.40;;;;;;;;;;5050822;28;20025;-74
2024/03/02 02:54:47;;;;;;;3.80;0.60;;;;;;;;;;5050831;28;20087;-75
2024/03/02 02:57:13;;;;;;;1.75;0.40;;;;;;;;;;5051952;28;20477;-75
2024/03/02 02:59:39;;;;;;;2.17;0.65;;;;;;;;;;5050735;28;20465;-76
2024/03/02 03:02:06;;;;;;;3.00;0.82;;;;;;;;;;5050574;28;20445;-76
2024/03/02 03:04:32;;;;;;;0.90;0.50;;;;;;;;;;5050728;28;20369;-76
2024/03/02 03:06:58;;;;;;;1.33;0.70;;;;;;;;;;5050520;28;20021;-75
2024/03/02 03:09:24;;;;;;;3.13;0.60;;;;;;;;;;5052327;28;20033;-75
2024/03/02 03:11:50;;;;;;;1.30;0.60;;;;;;;;;;5050663;28;20032;-75
2024/03/02 03:14:16;;;;;;;1.02;0.47;;;;;;;;;;5050152;28;20028;-76
2024/03/02 03:16:42;;;;;;;1.13;0.40;;;;;;;;;;5050396;28;20045;-75
2024/03/02 03:19:08;;;;;;;0.45;0.30;;;;;;;;;;5050006;28;20033;-75
2024/03/02 03:21:34;;;;;;;1.40;0.60;;;;;;;;;;5051951;28;20064;-75
2024/03/02 03:24:00;;;;;;;1.83;0.57;;;;;;;;;;5051444;28;20053;-75
2024/03/02 03:26:26;;;;;;;1.15;0.57;;;;;;;;;;5051498;28;20029;-75
2024/03/02 03:28:53;;;;;;;2.30;0.65;;;;;;;;;;5055726;28;20024;-74
2024/03/02 03:31:19;;;;;;;1.85;0.57;;;;;;;;;;5054220;28;20025;-74
2024/03/02 03:33:45;;;;;;;2.65;0.50;;;;;;;;;;5055694;28;20040;-75
2024/03/02 03:36:11;;;;;;;1.23;0.77;;;;;;;;;;5054009;28;20461;-74
2024/03/02 03:38:37;;;;;;;2.00;0.43;;;;;;;;;;5054215;28;20457;-74
2024/03/02 03:41:03;;;;;;;1.58;0.68;;;;;;;;;;5055008;28;20431;-75
2024/03/02 03:43:29;;;;;;;0.95;0.40;;;;;;;;;;5054201;28;20061;-75
2024/03/02 03:45:55;;;;;;;1.25;0.50;;;;;;;;;;5054307;28;20094;-75
2024/03/02 03:48:21;;;;;;;1.13;0.50;;;;;;;;;;5053788;28;20021;-75
2024/03/02 03:50:47;;;;;;;2.35;0.52;;;;;;;;;;5055210;28;20435;-74
2024/03/02 03:53:14;;;;;;;1.42;0.43;;;;;;;;;;5055432;28;20033;-74
2024/03/02 03:55:46;;;;;;;1.02;0.50;;;;;;;;;;5054435;28;20021;-74
2024/03/02 03:58:13;;;;;;;1.85;0.52;;;;;;;;;;5055777;28;20027;-74
2024/03/02 04:00:39;;;;;;;1.77;0.68;;;;;;;;;;5055076;28;20464;-74
2024/03/02 04:03:05;;;;;;;2.30;1.05;;;;;;;;;;5054528;28;20124;-74
2024/03/02 04:05:31;;;;;;;1.55;0.50;;;;;;;;;;5053794;28;20046;-75
2024/03/02 04:07:57;;;;;;;2.28;0.50;;;;;;;;;;5053701;28;20087;-75
2024/03/02 04:10:24;;;;;;;1.00;0.65;;;;;;;;;;5053690;28;20032;-74
2024/03/02 04:12:50;;;;;;;1.00;0.70;;;;;;;;;;5053644;28;20029;-74
2024/03/02 04:15:18;;;;;;;2.00;0.57;;;;;;;;;;5053514;28;20021;-74
2024/03/02 04:17:44;;;;;;;2.55;0.70;;;;;;;;;;5054501;28;20381;-74
2024/03/02 04:20:12;;;;;;;1.13;0.60;;;;;;;;;;5053178;28;20465;-73
2024/03/02 04:22:38;;;;;;;1.80;0.80;;;;;;;;;;5053468;28;20476;-74
2024/03/02 04:25:04;;;;;;;1.30;0.55;;;;;;;;;;5054318;28;20032;-74
2024/03/02 04:27:33;;;;;;;2.85;0.73;;;;;;;;;;5053496;28;20137;-73
2024/03/02 04:30:00;;;;;;;1.70;0.50;;;;;;;;;;5054497;28;20124;-73
2024/03/02 04:32:27;;;;;;;2.30;0.60;;;;;;;;;;5054661;28;20021;-75
2024/03/02 04:34:53;;;;;;;1.75;0.88;;;;;;;;;;5054537;28;20025;-75
2024/03/02 04:37:19;;;;;;;2.22;0.80;;;;;;;;;;5053320;28;20388;-75
2024/03/02 04:39:45;;;;;;;1.60;0.80;;;;;;;;;;5055324;28;20022;-75
2024/03/02 04:42:12;;;;;;;2.45;0.70;;;;;;;;;;5055168;28;20025;-75
2024/03/02 04:44:38;;;;;;;2.08;0.60;;;;;;;;;;5054561;28;20032;-75
2024/03/02 04:47:04;;;;;;;1.52;0.68;;;;;;;;;;5054258;28;20530;-75
2024/03/02 04:49:30;;;;;;;3.67;0.73;;;;;;;;;;5053026;28;20552;-75
2024/03/02 04:51:56;;;;;;;2.53;0.65;;;;;;;;;;5054227;28;20049;-75
2024/03/02 04:54:22;;;;;;;1.15;0.65;;;;;;;;;;5054019;28;20025;-74
2024/03/02 04:56:51;;;;;;;1.25;0.60;;;;;;;;;;5052819;28;20055;-75
2024/03/02 04:59:18;;;;;;;1.83;0.70;;;;;;;;;;5052455;28;20492;-75
2024/03/02 05:01:44;;;;;;;0.98;0.50;;;;;;;;;;5052762;28;20028;-75
2024/03/02 05:04:11;;;;;;;1.30;0.70;;;;;;;;;;5053739;28;20021;-75
2024/03/02 05:06:40;;;;;;;1.20;0.60;;;;;;;;;;5054013;28;20074;-75
2024/03/02 05:09:06;;;;;;;1.42;0.68;;;;;;;;;;5052369;28;20050;-74
2024/03/02 05:14:05;;;;;;;4.05;0.60;;;;;;;;;;5053661;28;20398;-75
2024/03/02 05:16:34;;;;;;;1.77;0.80;;;;;;;;;;5052180;28;20472;-74
2024/03/02 05:19:00;;;;;;;2.70;0.63;;;;;;;;;;5053793;28;20099;-74
2024/03/02 05:21:27;;;;;;;1.45;0.40;;;;;;;;;;5052143;28;20036;-74
2024/03/02 05:23:53;;;;;;;0.88;0.50;;;;;;;;;;5052365;28;20028;-74
2024/03/02 05:26:19;;;;;;;1.40;0.50;;;;;;;;;;5051958;28;20029;-75
2024/03/02 05:28:45;;;;;;;1.25;0.52;;;;;;;;;;5052259;28;20032;-74
2024/03/02 05:31:11;;;;;;;3.20;0.75;;;;;;;;;;5051969;28;20058;-74
2024/03/02 05:33:41;;;;;;;1.83;0.60;;;;;;;;;;5052036;28;20049;-74
2024/03/02 05:36:07;;;;;;;4.65;1.20;;;;;;;;;;5051851;28;20472;-74
2024/03/02 05:38:35;;;;;;;4.10;0.90;;;;;;;;;;5052029;28;20033;-73
2024/03/02 05:41:01;;;;;;;1.98;0.85;;;;;;;;;;5053226;28;20037;-74
2024/03/02 05:43:27;;;;;;;2.55;0.40;;;;;;;;;;5053187;28;20036;-74
2024/03/02 05:45:53;;;;;;;1.88;0.60;;;;;;;;;;5052129;28;20017;-74
2024/03/02 05:48:19;;;;;;;3.67;0.80;;;;;;;;;;5053634;28;20021;-74
2024/03/02 05:50:45;;;;;;;1.60;0.70;;;;;;;;;;5051426;28;20029;-74
2024/03/02 05:53:11;;;;;;;3.85;0.70;;;;;;;;;;5052723;28;20380;-74
2024/03/02 05:55:37;;;;;;;0.68;0.50;;;;;;;;;;5053620;28;20114;-75
2024/03/02 06:00:32;;;;;;;1.83;0.57;;;;;;;;;;5052851;28;20465;-75
2024/03/02 06:02:58;;;;;;;1.17;0.68;;;;;;;;;;5051608;28;20388;-74
2024/03/02 06:05:25;;;;;;;1.27;0.70;;;;;;;;;;5051538;28;20034;-74
2024/03/02 06:07:51;;;;;;;1.25;0.52;;;;;;;;;;5052919;28;20100;-74
2024/03/02 06:10:17;;;;;;;1.23;0.60;;;;;;;;;;5051408;28;20029;-74
2024/03/02 06:12:43;;;;;;;1.20;0.50;;;;;;;;;;5052879;28;20024;-75
2024/03/02 06:15:10;;;;;;;3.55;0.63;;;;;;;;;;5051836;28;20021;-74
2024/03/02 06:17:36;;;;;;;2.83;0.80;;;;;;;;;;5051204;28;20056;-75
2024/03/02 06:20:03;;;;;;;2.17;0.60;;;;;;;;;;5052215;28;20021;-75
2024/03/02 06:22:29;;;;;;;3.65;0.70;;;;;;;;;;5050910;28;20029;-75
2024/03/02 06:24:55;;;;;;;1.35;0.50;;;;;;;;;;5052235;28;20020;-75
2024/03/02 06:27:21;;;;;;;2.22;0.50;;;;;;;;;;5050778;28;20017;-75
2024/03/02 06:29:48;;;;;;;3.63;0.70;;;;;;;;;;5052183;28;20622;-74
2024/03/02 06:32:14;;;;;;;3.22;0.65;;;;;;;;;;5051895;28;20029;-74
2024/03/02 06:34:40;;;;;;;2.70;0.40;;;;;;;;;;5050763;28;20388;-75
2024/03/02 06:37:06;;;;;;;5.90;0.80;;;;;;;;;;5051320;28;20057;-74
2024/03/02 06:39:33;;;;;;;3.00;0.70;;;;;;;;;;5052537;28;20035;-74
2024/03/02 06:41:59;;;;;;;1.77;0.60;;;;;;;;;;5052713;28;20048;-74
2024/03/02 06:44:25;;;;;;;3.35;0.70;;;;;;;;;;5053175;28;20025;-75
2024/03/02 06:46:51;;;;;;;3.45;0.70;;;;;;;;;;5052470;28;20108;-74
2024/03/02 06:49:18;;;;;;;2.25;0.77;;;;;;;;;;5052004;28;20108;-75
2024/03/02 06:51:44;;;;;;;1.50;0.60;;;;;;;;;;5050521;28;20116;-75
2024/03/02 06:54:10;;;;;;;1.63;0.50;;;;;;;;;;5051555;28;20029;-76
2024/03/02 06:56:38;;;;;;;0.95;0.40;;;;;;;;;;5051877;28;20025;-75
2024/03/02 06:59:04;;;;;;;4.65;0.52;;;;;;;;;;5050540;28;20027;-75
2024/03/02 07:01:30;;;;;;;3.67;0.68;;;;;;;;;;5051242;28;20029;-75
2024/03/02 07:03:56;;;;;;;5.28;0.95;;;;;;;;;;5054601;28;20021;-75
2024/03/02 07:06:22;;;;;;;5.60;1.13;;;;;;;;;;5055769;28;20032;-75
2024/03/02 07:08:48;;;;;;;3.30;0.60;;;;;;;;;;5055918;28;20029;-75
2024/03/02 07:11:14;;;;;;;2.83;0.50;;;;;;;;;;5054631;28;20039;-77
2024/03/02 07:13:40;;;;;;;3.38;0.85;;;;;;;;;;5056091;28;20024;-76
2024/03/02 07:16:27;;;;;;;2.22;0.50;;;;;;;;;;5055828;28;20111;-75
2024/03/02 07:18:55;;;;;;;1.30;0.43;;;;;;;;;;5054697;28;20120;-76
2024/03/02 07:21:22;;;;;;;1.77;0.60;;;;;;;;;;5054336;28;20028;-76
2024/03/02 07:23:48;;;;;;;2.75;0.70;;;;;;;;;;5055895;28;20057;-75
2024/03/02 07:26:20;;;;;;;3.15;0.60;;;;;;;;;;5055559;28;20024;-74
2024/03/02 07:28:50;;;;;;;3.80;0.70;;;;;;;;;;5055788;28;20024;-75
2024/03/02 07:31:16;;;;;;;1.65;0.63;;;;;;;;;;5054208;28;20082;-74
2024/03/02 07:33:45;;;;;;;2.20;0.60;;;;;;;;;;5054100;28;20464;-73
2024/03/02 07:36:11;;;;;;;3.58;0.80;;;;;;;;;;5055611;28;20029;-74
2024/03/02 07:38:38;;;;;;;3.25;0.85;;;;;;;;;;5054789;28;20060;-74
2024/03/02 07:41:04;;;;;;;1.40;0.60;;;;;;;;;;5054481;28;20369;-73
2024/03/02 07:43:33;;;;;;;2.90;0.63;;;;;;;;;;5056508;28;20029;-74
2024/03/02 07:45:59;;;;;;;4.15;0.70;;;;;;;;;;5056896;28;20051;-73
2024/03/02 07:48:25;;;;;;;2.78;0.80;;;;;;;;;;5062262;28;20439;-75
2024/03/02 07:50:51;;;;;;;5.32;0.90;;;;;;;;;;5075061;28;20468;-75
2024/03/02 07:53:17;;;;;;;3.72;1.05;;;;;;;;;;5073722;28;20111;-74
2024/03/02 07:55:43;;;;;;;4.28;0.98;;;;;;;;;;5073862;28;20025;-74
2024/03/02 07:58:11;;;;;;;2.65;0.65;;;;;;;;;;5075141;28;20025;-75
2024/03/02 08:00:39;;;;;;;4.20;1.98;;;;;;;;;;5075208;28;20115;-74
2024/03/02 08:03:05;;;;;;;4.10;0.70;;;;;;;;;;5073824;28;20020;-75
2024/03/02 08:05:31;;;;;;;3.97;0.77;;;;;;;;;;5073627;28;20031;-75
2024/03/02 08:07:57;;;;;;;1.88;0.60;;;;;;;;;;5074805;28;20028;-74
2024/03/02 08:10:41;;;;;;;3.03;0.70;;;;;;;;;;5073459;28;20076;-75
2024/03/02 08:13:07;;;;;;;1.60;0.60;;;;;;;;;;5074274;28;20028;-75
2024/03/02 08:15:33;;;;;;;2.55;0.75;;;;;;;;;;5073389;28;20116;-74
2024/03/02 08:18:00;;;;;;;1.65;0.80;;;;;;;;;;5075062;28;20067;-75
2024/03/02 08:20:26;;;;;;;3.90;1.27;;;;;;;;;;5074520;28;20054;-74
2024/03/02 08:22:54;;;;;;;3.30;0.80;;;;;;;;;;5074891;28;20162;-74
2024/03/02 08:25:20;;;;;;;4.10;1.00;;;;;;;;;;5073333;28;20050;-74
2024/03/02 08:27:46;;;;;;;4.93;0.90;;;;;;;;;;5073786;28;20032;-74
2024/03/02 08:30:13;;;;;;;2.65;0.90;;;;;;;;;;5073901;28;20134;-74
2024/03/02 08:32:40;;;;;;;2.55;0.60;;;;;;;;;;5074441;28;20096;-75
2024/03/02 08:35:06;;;;;;;2.03;0.70;;;;;;;;;;5074298;28;20020;-74
2024/03/02 08:37:32;;;;;;;2.58;0.60;;;;;;;;;;5074330;28;20020;-74
2024/03/02 08:39:59;;;;;;;5.13;1.08;;;;;;;;;;5073157;28;20043;-75
2024/03/02 08:42:25;;;;;;;4.78;1.10;;;;;;;;;;5072620;28;20025;-74
2024/03/02 08:44:51;;;;;;;2.70;0.80;;;;;;;;;;5074347;28;20475;-74
2024/03/02 08:47:17;;;;;;;2.17;0.70;;;;;;;;;;5074096;28;20487;-74
2024/03/02 08:49:43;;;;;;;6.07;1.00;;;;;;;;;;5074017;28;20032;-74
2024/03/02 08:52:09;;;;;;;5.53;1.00;;;;;;;;;;5072901;28;20082;-74
2024/03/02 08:54:36;;;;;;;5.18;1.90;;;;;;;;;;5073669;28;20017;-74
2024/03/02 08:57:02;;;;;;;2.53;0.90;;;;;;;;;;5072891;28;20052;-74
2024/03/02 08:59:28;;;;;;;4.97;0.88;;;;;;;;;;5073804;28;20032;-74
2024/03/02 09:01:54;;;;;;;5.00;0.90;;;;;;;;;;5074141;28;20024;-74
2024/03/02 09:04:20;;;;;;;3.20;0.80;;;;;;;;;;5072532;28;20170;-73
2024/03/02 09:06:46;;;;;;;4.10;1.02;;;;;;;;;;5072784;28;20089;-74
2024/03/02 09:09:12;;;;;;;4.68;0.85;;;;;;;;;;5072649;28;20024;-74
2024/03/02 09:11:38;;;;;;;5.25;1.10;;;;;;;;;;5073820;28;20460;-73
2024/03/02 09:14:05;;;;;;;3.70;1.23;;;;;;;;;;5072268;28;20081;-75
2024/03/02 09:16:31;;;;;;;5.65;1.00;;;;;;;;;;5073386;28;20048;-74
2024/03/02 09:18:57;;;;;;;6.18;0.98;;;;;;;;;;5074234;28;20027;-74
2024/03/02 09:21:23;;;;;;;4.78;1.25;;;;;;;;;;5072155;28;20029;-74
2024/03/02 09:23:49;;;;;;;3.40;0.98;;;;;;;;;;5072599;28;20356;-74
2024/03/02 09:26:15;;;;;;;5.18;1.13;;;;;;;;;;5074030;28;20056;-74
2024/03/02 09:28:45;;;;;;;3.05;0.80;;;;;;;;;;5072516;28;20113;-73
2024/03/02 09:31:11;;;;;;;6.43;1.00;;;;;;;;;;5073175;28;20021;-74
2024/03/02 09:33:39;;;;;;;5.75;0.80;;;;;;;;;;5072442;28;20030;-74
2024/03/02 09:36:05;;;;;;;5.28;1.45;;;;;;;;;;5070118;28;20021;-74
2024/03/02 09:38:33;;;;;;;1.48;0.85;;;;;;;;;;5061578;28;20028;-73
2024/03/02 09:41:00;;;;;;;3.45;1.15;;;;;;;;;;5061799;28;20021;-74
2024/03/02 09:43:27;;;;;;;5.20;1.13;;;;;;;;;;5061633;28;20036;-75
2024/03/02 09:45:53;;;;;;;5.20;0.82;;;;;;;;;;5058721;28;20021;-74
2024/03/02 09:48:20;;;;;;;2.25;0.65;;;;;;;;;;5051357;28;20037;-74
2024/03/02 09:50:46;;;;;;;4.72;1.02;;;;;;;;;;5051707;28;20024;-74
2024/03/02 09:53:12;;;;;;;7.30;0.88;;;;;;;;;;5053660;28;20033;-74
2024/03/02 09:55:42;;;;;;;4.10;1.00;;;;;;;;;;5051816;28;20033;-75
2024/03/02 09:58:08;;;;;;;1.95;0.60;;;;;;;;;;5052259;28;20063;-74
2024/03/02 10:00:34;;;;;;;6.03;1.17;;;;;;;;;;5051746;28;20029;-74
2024/03/02 10:03:00;;;;;;;6.30;1.13;;;;;;;;;;5053458;28;20072;-74
2024/03/02 10:05:28;;;;;;;4.88;1.08;;;;;;;;;;5053118;28;20017;-74
2024/03/02 10:08:01;;;;;;;6.03;1.02;;;;;;;;;;5052028;28;20027;-75
2024/03/02 10:10:35;;;;;;;4.43;0.80;;;;;;;;;;5053225;28;20087;-74
2024/03/02 10:13:05;;;;;;;4.63;1.30;;;;;;;;;;5053048;28;20043;-74
2024/03/02 10:15:31;;;;;;;;;;;;;;;;;;5052142;28;20082;-75
2024/03/02 10:17:57;;;;;;;3.75;0.80;;;;;;;;;;5053483;28;19917;-74
2024/03/02 10:20:25;;;;;;;1.60;0.70;;;;;;;;;;5059768;28;20033;-73
2024/03/02 10:22:51;;;;;;;4.28;1.08;;;;;;;;;;5073007;28;20572;-74
2024/03/02 10:25:31;;;;;;;4.10;0.63;;;;;;;;;;5072896;28;20040;-74
2024/03/02 10:28:00;;;;;;;7.38;1.95;;;;;;;;;;5073249;28;20031;-74
2024/03/02 10:30:29;;;;;;;4.28;1.00;;;;;;;;;;5072804;28;20020;-74
2024/03/02 10:32:56;;;;;;;3.38;0.93;;;;;;;;;;5071337;28;20028;-74
2024/03/02 10:35:25;;;;;;;7.13;0.82;;;;;;;;;;5070255;28;20426;-75
2024/03/02 10:37:52;;;;;;;2.57;0.70;;;;;;;;;;5072810;28;20016;-74
2024/03/02 10:40:18;;;;;;;4.82;1.10;;;;;;;;;;5072935;28;20298;-74
2024/03/02 10:42:45;;;;;;;4.10;0.90;;;;;;;;;;5071432;28;20021;-74
2024/03/02 10:45:12;;;;;;;5.40;0.85;;;;;;;;;;5072780;28;20047;-74
2024/03/02 10:47:39;;;;;;;4.15;0.80;;;;;;;;;;5071462;28;20028;-74
2024/03/02 10:50:08;;;;;;;3.70;0.80;;;;;;;;;;5071534;28;20024;-75
2024/03/02 10:52:38;;;;;;;3.50;1.30;;;;;;;;;;5072461;28;20108;-73
2024/03/02 10:55:05;;;;;;;;;;;;;;;;;;5071631;28;20457;-74
2024/03/02 10:57:41;;;;;;;3.08;1.17;;;;;;;;;;5070819;28;19908;-75
2024/03/02 11:00:14;;;;;;;3.78;0.90;;;;;;;;;;5071131;28;20035;-75
2024/03/02 11:02:41;;;;;;;10.52;1.63;;;;;;;;;;5071071;28;20060;-73
2024/03/02 11:05:08;;;;;;;10.85;1.70;;;;;;;;;;5072768;28;20479;-75
2024/03/02 11:07:35;;;;;;;4.50;0.80;;;;;;;;;;5070929;28;20486;-75
2024/03/02 11:10:08;;;;;;;4.65;0.90;;;;;;;;;;5071474;28;20537;-74
2024/03/02 11:12:39;;;;;;;4.15;1.10;;;;;;;;;;5071063;28;20115;-75
2024/03/02 11:15:13;;;;;;;4.90;0.70;;;;;;;;;;5072386;28;20055;-75
2024/03/02 11:17:41;;;;;;;1.95;0.70;;;;;;;;;;5070643;28;20513;-74
2024/03/02 11:20:08;;;;;;;5.60;1.25;;;;;;;;;;5072441;28;20028;-74
2024/03/02 11:22:35;;;;;;;3.47;1.02;;;;;;;;;;5072703;28;20024;-74
2024/03/02 11:25:01;;;;;;;3.40;0.80;;;;;;;;;;5071419;28;20032;-74
2024/03/02 11:27:46;;;;;;;1.92;0.60;;;;;;;;;;5072314;28;20063;-74
2024/03/02 11:30:31;;;;;;;3.83;0.93;;;;;;;;;;5071522;28;20040;-74
2024/03/02 11:32:57;;;;;;;2.55;0.50;;;;;;;;;;5071229;28;20017;-74
2024/03/02 11:35:26;;;;;;;3.45;0.77;;;;;;;;;;5070975;28;20027;-74
2024/03/02 11:37:52;;;;;;;3.58;0.70;;;;;;;;;;5072630;28;20491;-75
2024/03/02 11:40:25;;;;;;;2.72;0.63;;;;;;;;;;5071353;28;20130;-74
2024/03/02 11:42:51;;;;;;;5.93;1.27;;;;;;;;;;5072526;28;20086;-74
2024/03/02 11:45:18;;;;;;;4.80;1.33;;;;;;;;;;5071188;28;20021;-75
2024/03/02 11:47:50;;;;;;;3.17;0.70;;;;;;;;;;5072335;28;20021;-75
2024/03/02 11:50:16;;;;;;;4.72;0.90;;;;;;;;;;5076517;28;20039;-75
2024/03/02 11:52:42;;;;;;;2.50;0.80;;;;;;;;;;5074483;28;20078;-74
2024/03/02 11:55:09;;;;;;;4.38;0.70;;;;;;;;;;5075789;28;20392;-75
2024/03/02 11:57:35;;;;;;;5.07;1.25;;;;;;;;;;5075756;28;20059;-75
2024/03/02 12:00:03;;;;;;;5.40;0.90;;;;;;;;;;5075631;28;20388;-74
2024/03/02 12:02:29;;;;;;;3.33;0.82;;;;;;;;;;5075797;28;20089;-75
2024/03/02 12:04:56;;;;;;;4.35;0.90;;;;;;;;;;5076233;28;20016;-75
2024/03/02 12:07:23;;;;;;;2.45;0.73;;;;;;;;;;5074475;28;20096;-75
2024/03/02 12:09:50;;;;;;;4.32;1.10;;;;;;;;;;5075868;28;20379;-74
2024/03/02 12:12:22;;;;;;;2.55;0.80;;;;;;;;;;5074561;28;20489;-73
2024/03/02 12:14:52;;;;;;;2.45;0.60;;;;;;;;;;5074689;28;20399;-75
2024/03/02 12:17:19;;;;;;;4.15;0.80;;;;;;;;;;5075372;28;20476;-75
2024/03/02 12:19:45;;;;;;;3.88;0.80;;;;;;;;;;5074886;28;20115;-76
2024/03/02 12:22:12;;;;;;;3.72;0.77;;;;;;;;;;5074808;28;20094;-76
2024/03/02 12:24:38;;;;;;;2.67;0.80;;;;;;;;;;5073028;28;20024;-76
2024/03/02 12:27:05;;;;;;;3.30;0.80;;;;;;;;;;5073444;28;20024;-75
2024/03/02 12:29:31;;;;;;;6.00;0.93;;;;;;;;;;5073079;28;20381;-75
2024/03/02 12:31:57;;;;;;;5.30;0.90;;;;;;;;;;5074460;28;20460;-76
2024/03/02 12:34:23;;;;;;;3.33;0.63;;;;;;;;;;5073314;28;20242;-75
2024/03/02 12:36:52;;;;;;;3.08;0.68;;;;;;;;;;5074772;28;20518;-75
2024/03/02 12:39:19;;;;;;;3.35;0.95;;;;;;;;;;5073314;28;20025;-75
2024/03/02 12:41:45;;;;;;;5.88;1.30;;;;;;;;;;5074174;28;20111;-76
2024/03/02 12:44:11;;;;;;;3.65;0.90;;;;;;;;;;5074658;28;20024;-76
2024/03/02 12:46:37;;;;;;;6.78;0.90;;;;;;;;;;5072568;28;20020;-74
2024/03/02 12:49:10;;;;;;;3.85;1.00;;;;;;;;;;5074401;28;20031;-76
2024/03/02 12:51:37;;;;;;;5.32;1.08;;;;;;;;;;5074242;28;20024;-75
2024/03/02 12:54:05;;;;;;;3.83;0.73;;;;;;;;;;5074447;28;20342;-76
2024/03/02 12:56:31;;;;;;;5.47;1.30;;;;;;;;;;5073017;28;20028;-76
2024/03/02 12:58:57;;;;;;;3.20;0.75;;;;;;;;;;5074531;28;20017;-76
2024/03/02 13:01:23;;;;;;;3.78;0.63;;;;;;;;;;5072739;28;20025;-76
2024/03/02 13:03:53;;;;;;;3.80;1.20;;;;;;;;;;5072462;28;20036;-75
2024/03/02 13:06:20;;;;;;;2.60;0.80;;;;;;;;;;5073764;28;20052;-76
2024/03/02 13:08:49;;;;;;;4.57;1.10;;;;;;;;;;5072361;28;20024;-76
2024/03/02 13:11:16;;;;;;;3.08;0.90;;;;;;;;;;5072415;28;20052;-76
2024/03/02 13:13:42;;;;;;;3.17;0.85;;;;;;;;;;5073616;28;20035;-76
2024/03/02 13:16:12;;;;;;;4.13;1.10;;;;;;;;;;5072451;28;20039;-77
2024/03/02 13:18:38;;;;;;;;;;;;;;;;;;5072910;28;20480;-76
2024/03/02 13:21:04;;;;;;;2.17;0.85;;;;;;;;;;5073570;28;20065;-76
2024/03/02 13:23:30;;;;;;;2.92;1.02;;;;;;;;;;5071688;28;20111;-77
2024/03/02 13:25:58;;;;;;;2.83;1.25;;;;;;;;;;5072073;28;20021;-77
2024/03/02 13:28:24;;;;;;;3.42;0.90;;;;;;;;;;5072135;28;20032;-77
2024/03/02 13:30:50;;;;;;;3.80;1.00;;;;;;;;;;5071854;28;20430;-76
2024/03/02 13:33:19;;;;;;;3.25;1.10;;;;;;;;;;5072116;28;20024;-77
2024/03/02 13:35:45;;;;;;;5.72;1.20;;;;;;;;;;5071756;28;20035;-76
2024/03/02 13:38:11;;;;;;;4.63;1.25;;;;;;;;;;5071978;28;20419;-77
2024/03/02 13:40:37;;;;;;;4.80;1.33;;;;;;;;;;5071518;28;20025;-78
2024/03/02 13:43:03;;;;;;;4.55;1.33;;;;;;;;;;5073201;28;20021;-77
2024/03/02 13:45:30;;;;;;;3.30;1.00;;;;;;;;;;5071513;28;20111;-77
2024/03/02 13:47:56;;;;;;;3.85;1.17;;;;;;;;;;5071907;28;20039;-78
2024/03/02 13:50:22;;;;;;;4.30;1.17;;;;;;;;;;5071965;28;20561;-78
2024/03/02 13:52:48;;;;;;;5.10;1.02;;;;;;;;;;5072927;28;20037;-77
2024/03/02 13:55:14;;;;;;;3.63;1.23;;;;;;;;;;5071512;28;20111;-78
2024/03/02 13:57:40;;;;;;;3.53;1.00;;;;;;;;;;5072819;28;20029;-81
2024/03/02 14:00:10;;;;;;;3.70;0.98;;;;;;;;;;5071328;28;20033;-79
2024/03/02 14:02:36;;;;;;;1.98;0.85;;;;;;;;;;5071213;28;20051;-79
2024/03/02 14:05:02;;;;;;;3.63;1.27;;;;;;;;;;5071438;28;20075;-78
2024/03/02 14:07:29;;;;;;;3.28;1.20;;;;;;;;;;5072815;28;20487;-80
2024/03/02 14:09:55;;;;;;;3.13;1.23;;;;;;;;;;5071160;28;20024;-81
2024/03/02 14:12:24;;;;;;;4.53;1.10;;;;;;;;;;5071072;28;20048;-78
2024/03/02 14:14:52;;;;;;;6.75;0.88;;;;;;;;;;5071199;28;20025;-78
2024/03/02 14:17:27;;;;;;;2.65;0.95;;;;;;;;;;5070705;28;20048;-78
2024/03/02 14:19:53;;;;;;;4.60;0.82;;;;;;;;;;5070975;28;20119;-80
2024/03/02 14:22:20;;;;;;;3.38;0.80;;;;;;;;;;5071167;28;20021;-80
2024/03/02 14:24:47;;;;;;;5.40;1.65;;;;;;;;;;5071013;28;20469;-78
2024/03/02 14:27:14;;;;;;;4.63;1.50;;;;;;;;;;5071146;28;20414;-78
2024/03/02 14:29:40;;;;;;;3.17;1.02;;;;;;;;;;5070885;28;20112;-78
2024/03/02 14:32:07;;;;;;;3.75;1.20;;;;;;;;;;5072562;28;20380;-78
2024/03/02 14:34:33;;;;;;;4.45;0.90;;;;;;;;;;5072128;28;20104;-80
2024/03/02 14:36:59;;;;;;;2.85;1.15;;;;;;;;;;5071109;28;20021;-78
2024/03/02 14:39:26;;;;;;;5.15;0.88;;;;;;;;;;5072253;28;20262;-79
2024/03/02 14:41:52;;;;;;;4.60;0.95;;;;;;;;;;5054282;28;20051;-79
2024/03/02 14:44:20;;;;;;;3.15;0.80;;;;;;;;;;5070736;28;20484;-77
2024/03/02 14:46:47;;;;;;;8.82;1.75;;;;;;;;;;5070749;28;20035;-79